Time;durP1;ratioP1;P1;durP2;ratioP2;P2;SDS_P1;SDS_P2;PMS_P1;PMS_P2;Temp;Humidity;BMP_temperature;BMP_pressure;BME280_temperature;BME280_humidity;BME280_pressure;Samples;Min_cycle;Max_cycle;Signal;HPM_P1;HPM_P2
2022/07/12 00:00:26;;;;;;;3.67;2.10;;;;;;;12.57;75.79;100352.78;1663051;85;33374;-68
2022/07/12 00:02:54;;;;;;;2.83;1.98;;;;;;;12.57;76.07;100348.72;1673157;84;25519;-68
2022/07/12 00:05:21;;;;;;;2.30;1.90;;;;;;;12.56;76.08;100351.18;1690138;84;25955;-68
2022/07/12 00:07:48;;;;;;;2.33;1.80;;;;;;;12.54;76.00;100347.20;1689955;84;25703;-68
2022/07/12 00:10:14;;;;;;;3.77;1.90;;;;;;;12.53;76.16;100353.17;1691060;84;27432;-68
2022/07/12 00:12:40;;;;;;;4.92;2.12;;;;;;;12.54;76.34;100349.92;1690045;84;33174;-68
2022/07/12 00:15:09;;;;;;;2.55;2.10;;;;;;;12.51;76.22;100352.16;1689244;84;25911;-68
2022/07/12 00:17:38;;;;;;;3.65;1.60;;;;;;;12.51;76.33;100358.13;1688478;84;25518;-68
2022/07/12 00:20:07;;;;;;;5.53;2.08;;;;;;;12.48;76.34;100356.86;1690458;84;25719;-68
2022/07/12 00:22:33;;;;;;;3.17;1.77;;;;;;;12.47;76.61;100356.61;1685986;84;27926;-68
2022/07/12 00:25:00;;;;;;;2.98;1.90;;;;;;;12.48;76.71;100351.98;1689884;84;25744;-68
2022/07/12 00:27:26;;;;;;;2.05;1.75;;;;;;;12.45;76.74;100345.29;1691428;84;25683;-68
2022/07/12 00:29:53;;;;;;;4.10;2.02;;;;;;;12.44;76.91;100345.04;1685822;84;25643;-68
2022/07/12 00:32:19;;;;;;;4.47;1.70;;;;;;;12.44;77.14;100348.32;1686890;84;25784;-68
2022/07/12 00:34:45;;;;;;;3.12;1.70;;;;;;;12.42;77.02;100352.70;1690554;84;27335;-68
2022/07/12 00:37:11;;;;;;;5.37;2.10;;;;;;;12.41;77.39;100350.31;1688440;84;26530;-68
2022/07/12 00:39:38;;;;;;;4.28;1.95;;;;;;;12.41;77.46;100348.42;1690786;84;25422;-68
2022/07/12 00:42:05;;;;;;;2.90;2.10;;;;;;;12.40;77.84;100351.45;1691433;84;25671;-67
2022/07/12 00:44:33;;;;;;;2.30;1.92;;;;;;;12.38;77.80;100348.23;1688511;84;25772;-67
2022/07/12 00:47:05;;;;;;;3.72;2.05;;;;;;;12.39;77.91;100352.55;1690697;84;28138;-67
2022/07/12 00:49:32;;;;;;;4.05;2.05;;;;;;;12.38;78.05;100363.15;1677073;84;25702;-67
2022/07/12 00:52:00;;;;;;;4.20;2.02;;;;;;;12.37;78.05;100358.29;1673786;85;25831;-68
2022/07/12 00:54:26;;;;;;;4.97;1.95;;;;;;;12.36;78.16;100349.11;1677448;84;25785;-68
2022/07/12 00:56:52;;;;;;;8.30;2.15;;;;;;;12.36;78.44;100350.47;1670474;85;25745;-68
2022/07/12 00:59:18;;;;;;;2.50;2.20;;;;;;;12.36;78.61;100351.29;1690010;84;27410;-68
2022/07/12 01:01:45;;;;;;;3.47;2.27;;;;;;;12.37;78.75;100345.30;1686520;84;25620;-68
2022/07/12 01:04:12;;;;;;;4.65;2.00;;;;;;;12.36;78.73;100345.87;1686588;84;25476;-68
2022/07/12 01:06:38;;;;;;;2.72;2.00;;;;;;;12.36;78.70;100346.41;1688071;84;26393;-68
2022/07/12 01:09:04;;;;;;;2.92;2.20;;;;;;;12.35;78.42;100352.39;1677805;84;25680;-68
2022/07/12 01:11:31;;;;;;;4.25;2.20;;;;;;;12.35;78.86;100348.33;1674008;85;27341;-68
2022/07/12 01:13:57;;;;;;;3.17;2.22;;;;;;;12.35;78.83;100340.76;1679312;84;25738;-68
2022/07/12 01:16:24;;;;;;;3.55;2.30;;;;;;;12.35;78.92;100350.25;1690144;84;25693;-68
2022/07/12 01:18:52;;;;;;;4.25;3.62;;;;;;;12.34;78.97;100344.01;1666328;85;25735;-68
2022/07/12 01:21:22;;;;;;;4.12;2.40;;;;;;;12.32;78.95;100341.61;1679357;84;25746;-68
2022/07/12 01:23:50;;;;;;;3.33;2.40;;;;;;;12.32;79.28;100345.68;1689002;84;28042;-68
2022/07/12 01:26:16;;;;;;;3.67;2.50;;;;;;;12.33;79.33;100341.07;1674047;84;25807;-68
2022/07/12 01:28:42;;;;;;;5.20;2.70;;;;;;;12.33;79.45;100340.50;1679112;84;25588;-68
2022/07/12 01:31:08;;;;;;;3.98;2.52;;;;;;;12.32;79.61;100336.75;1673918;83;26112;-68
2022/07/12 01:33:35;;;;;;;4.25;2.77;;;;;;;12.32;79.98;100338.11;1677835;84;25644;-68
2022/07/12 01:36:01;;;;;;;5.15;2.75;;;;;;;12.31;79.86;100337.89;1677896;84;27401;-68
2022/07/12 01:38:27;;;;;;;5.35;2.85;;;;;;;12.32;80.11;100336.19;1676193;85;25474;-68
2022/07/12 01:40:54;;;;;;;5.60;2.72;;;;;;;12.33;80.39;100343.22;1676029;85;25451;-68
2022/07/12 01:43:20;;;;;;;4.62;2.70;;;;;;;12.35;80.65;100337.48;1675820;85;25790;-68
2022/07/12 01:45:46;;;;;;;3.95;2.58;;;;;;;12.39;80.96;100337.63;1679985;84;25747;-68
2022/07/12 01:48:14;;;;;;;3.77;2.67;;;;;;;12.40;81.16;100332.45;1684834;84;27732;-68
2022/07/12 01:50:42;;;;;;;4.28;3.00;;;;;;;12.43;81.26;100327.19;1670415;84;25843;-68
2022/07/12 01:53:09;;;;;;;3.75;3.27;;;;;;;12.44;81.66;100321.19;1656154;84;25690;-68
2022/07/12 01:55:36;;;;;;;4.65;3.02;;;;;;;12.45;81.39;100322.23;1674036;85;25768;-68
2022/07/12 01:58:03;;;;;;;4.78;3.30;;;;;;;12.46;81.40;100321.13;1679059;84;25810;-68
2022/07/12 02:00:32;;;;;;;3.25;2.90;;;;;;;12.46;81.39;100323.02;1660308;85;27336;-68
2022/07/12 02:02:59;;;;;;;3.87;2.75;;;;;;;12.46;81.50;100315.70;1644917;84;25745;-68
2022/07/12 02:05:25;;;;;;;4.05;3.30;;;;;;;12.47;81.63;100316.48;1641204;87;25739;-68
2022/07/12 02:07:53;;;;;;;5.15;3.10;;;;;;;12.48;81.77;100323.49;1641416;86;25771;-68
2022/07/12 02:10:19;;;;;;;6.55;3.33;;;;;;;12.52;81.91;100325.81;1641465;87;25718;-68
2022/07/12 02:12:46;;;;;;;4.22;3.55;;;;;;;12.54;82.25;100322.22;1641103;87;27435;-68
2022/07/12 02:15:12;;;;;;;5.78;3.67;;;;;;;12.57;82.47;100315.37;1643884;86;27288;-68
2022/07/12 02:17:38;;;;;;;5.03;3.22;;;;;;;12.60;82.56;100321.48;1641502;87;25719;-68
2022/07/12 02:20:07;;;;;;;6.30;3.55;;;;;;;12.65;82.91;100315.35;1650822;86;26316;-68
2022/07/12 02:22:34;;;;;;;4.22;3.15;;;;;;;12.67;82.81;100313.67;1635865;86;25523;-66
2022/07/12 02:25:01;;;;;;;7.70;4.08;;;;;;;12.72;83.05;100312.14;1650312;86;27339;-66
2022/07/12 02:27:27;;;;;;;6.33;4.05;;;;;;;12.77;83.21;100308.44;1651002;86;25536;-67
2022/07/12 02:29:53;;;;;;;5.55;4.33;;;;;;;12.81;83.32;100310.77;1658207;84;25830;-67
2022/07/12 02:32:19;;;;;;;7.62;4.22;;;;;;;12.84;83.41;100308.20;1678001;84;26488;-67
2022/07/12 02:34:45;;;;;;;5.37;4.58;;;;;;;12.88;83.56;100304.27;1678647;84;25698;-67
2022/07/12 02:37:11;;;;;;;7.70;4.97;;;;;;;12.91;83.59;100297.41;1679740;84;27454;-67
2022/07/12 02:39:37;;;;;;;7.45;5.12;;;;;;;12.94;83.65;100296.20;1680499;84;25800;-67
2022/07/12 02:42:04;;;;;;;8.88;5.42;;;;;;;12.98;83.67;100295.77;1677842;84;25598;-67
2022/07/12 02:44:30;;;;;;;6.47;5.08;;;;;;;13.02;83.89;100296.70;1679754;84;25751;-66
2022/07/12 02:46:56;;;;;;;6.15;5.28;;;;;;;13.07;83.98;100297.89;1647454;86;25937;-66
2022/07/12 02:49:24;;;;;;;7.33;5.03;;;;;;;13.10;84.07;100299.17;1648954;86;28244;-67
2022/07/12 02:51:50;;;;;;;7.37;5.55;;;;;;;13.13;84.06;100294.98;1649929;86;25796;-67
2022/07/12 02:54:16;;;;;;;7.15;5.10;;;;;;;13.18;84.13;100297.55;1648582;86;29892;-67
2022/07/12 02:56:42;;;;;;;7.40;4.80;;;;;;;13.21;83.92;100299.59;1648327;86;35049;-67
2022/07/12 02:59:08;;;;;;;8.90;5.35;;;;;;;13.25;84.10;100296.48;1649756;86;25759;-67
2022/07/12 03:01:34;;;;;;;7.85;4.75;;;;;;;13.30;84.14;100283.25;1648180;86;27295;-67
2022/07/12 03:04:00;;;;;;;6.08;4.65;;;;;;;13.33;84.13;100290.78;1648732;86;33350;-67
2022/07/12 03:06:27;;;;;;;6.22;4.95;;;;;;;13.38;84.09;100295.48;1644966;86;29676;-67
2022/07/12 03:08:53;;;;;;;6.00;4.42;;;;;;;13.41;84.04;100295.38;1612971;87;25703;-67
2022/07/12 03:11:21;;;;;;;9.13;4.83;;;;;;;13.46;84.07;100296.55;1649345;86;25880;-67
2022/07/12 03:13:47;;;;;;;5.22;4.28;;;;;;;13.49;84.09;100298.62;1648597;86;27392;-67
2022/07/12 03:16:13;;;;;;;5.30;4.15;;;;;;;13.52;84.01;100295.79;1603414;87;25719;-67
2022/07/12 03:18:41;;;;;;;6.75;4.60;;;;;;;13.56;84.02;100294.81;1639252;86;25709;-67
2022/07/12 03:21:08;;;;;;;8.48;4.30;;;;;;;13.59;84.05;100297.45;1657248;86;25631;-67
2022/07/12 03:23:34;;;;;;;5.72;4.30;;;;;;;13.62;84.06;100298.13;1666639;85;25477;-67
2022/07/12 03:26:02;;;;;;;6.30;4.37;;;;;;;13.64;83.97;100297.27;1655027;86;29514;-68
2022/07/12 03:28:28;;;;;;;5.42;4.22;;;;;;;13.66;83.79;100290.92;1662477;85;25843;-67
2022/07/12 03:30:54;;;;;;;5.67;3.80;;;;;;;13.70;83.98;100294.56;1665508;85;26241;-67
2022/07/12 03:33:20;;;;;;;7.40;4.70;;;;;;;13.73;83.97;100287.69;1663958;85;25700;-67
2022/07/12 03:35:47;;;;;;;8.08;4.15;;;;;;;13.75;83.88;100280.78;1664057;85;25644;-67
2022/07/12 03:38:14;;;;;;;5.53;4.75;;;;;;;13.79;83.93;100278.19;1634150;86;28030;-67
2022/07/12 03:40:40;;;;;;;5.10;4.03;;;;;;;13.82;83.98;100276.17;1664033;85;25805;-67
2022/07/12 03:43:06;;;;;;;5.10;4.60;;;;;;;13.85;83.92;100283.68;1664469;85;25462;-67
2022/07/12 03:45:32;;;;;;;5.40;4.60;;;;;;;13.89;83.92;100283.81;1665323;85;26496;-67
2022/07/12 03:47:58;;;;;;;9.08;4.72;;;;;;;13.91;83.84;100282.91;1663247;85;25443;-68
2022/07/12 03:50:25;;;;;;;6.37;4.50;;;;;;;13.94;83.75;100284.97;1663602;85;27335;-67
2022/07/12 03:52:55;;;;;;;6.67;4.50;;;;;;;13.97;83.67;100285.67;1663806;85;25565;-67
2022/07/12 03:55:21;;;;;;;8.55;4.40;;;;;;;13.98;83.64;100281.84;1676320;84;25618;-67
2022/07/12 03:57:51;;;;;;;7.17;4.87;;;;;;;14.00;83.63;100277.64;1667232;85;25823;-67
2022/07/12 04:00:17;;;;;;;7.65;4.60;;;;;;;14.04;84.03;100273.69;1662804;86;26416;-68
2022/07/12 04:02:43;;;;;;;6.83;4.37;;;;;;;14.06;83.68;100278.23;1662388;86;27324;-68
2022/07/12 04:05:11;;;;;;;9.20;4.60;;;;;;;14.08;83.55;100276.00;1666688;84;25406;-67
2022/07/12 04:07:39;;;;;;;8.33;4.58;;;;;;;14.13;83.94;100264.91;1654397;86;25477;-68
2022/07/12 04:10:28;;;;;;;4.42;3.95;;;;;;;14.16;83.59;100268.88;1638709;86;26966;-69
2022/07/12 04:12:54;;;;;;;5.15;3.90;;;;;;;14.23;83.92;100266.98;1688597;84;25780;-67
2022/07/12 04:15:20;;;;;;;6.75;3.80;;;;;;;14.28;83.67;100262.11;1688458;84;27531;-69
2022/07/12 04:17:47;;;;;;;5.53;3.50;;;;;;;14.34;83.78;100264.08;1688751;84;25761;-69
2022/07/12 04:20:13;;;;;;;3.55;3.25;;;;;;;14.39;83.68;100256.50;1665549;85;25476;-70
2022/07/12 04:22:39;;;;;;;3.58;3.27;;;;;;;14.44;83.54;100256.05;1669021;85;25914;-70
2022/07/12 04:25:28;;;;;;;4.15;3.55;;;;;;;14.48;83.23;100265.93;1669608;85;25475;-69
2022/07/12 06:30:21;;;;;;;6.25;3.30;;;;;;;16.52;76.87;100240.61;1868012;76;25531;-69
2022/07/12 06:32:48;;;;;;;5.22;2.50;;;;;;;16.48;77.11;100232.09;1756647;81;25532;-69
2022/07/12 06:35:15;;;;;;;6.12;3.05;;;;;;;16.52;77.08;100232.42;1774498;80;28150;-70
2022/07/12 06:37:42;;;;;;;4.97;2.70;;;;;;;16.56;77.00;100221.59;1756261;81;26187;-68
2022/07/12 06:40:10;;;;;;;5.70;3.10;;;;;;;16.61;77.08;100226.78;1776735;80;25689;-68
2022/07/12 06:42:36;;;;;;;4.37;3.05;;;;;;;16.71;77.08;100215.92;1776402;80;25772;-68
2022/07/12 06:45:05;;;;;;;3.50;2.67;;;;;;;16.80;77.13;100221.44;1766218;79;25624;-69
2022/07/12 06:47:31;;;;;;;3.90;3.30;;;;;;;16.91;77.13;100211.38;1746225;82;27605;-69
2022/07/12 06:49:57;;;;;;;3.33;2.33;;;;;;;17.04;76.65;100210.68;1745527;82;25993;-70
2022/07/12 06:52:23;;;;;;;3.35;2.10;;;;;;;17.12;76.40;100211.85;1746103;81;25725;-71
2022/07/12 06:54:50;;;;;;;7.08;2.30;;;;;;;17.25;76.54;100219.97;1715067;82;25570;-71
2022/07/12 06:57:16;;;;;;;3.05;2.05;;;;;;;17.36;75.86;100219.61;1745798;82;25611;-70
2022/07/12 06:59:42;;;;;;;3.45;2.27;;;;;;;17.46;75.66;100222.38;1756668;81;27482;-70
2022/07/12 07:02:09;;;;;;;5.22;1.98;;;;;;;17.55;75.46;100229.23;1743645;81;25763;-69
2022/07/12 07:04:35;;;;;;;2.62;2.25;;;;;;;17.60;74.88;100228.14;1756253;81;25398;-69
2022/07/12 07:07:01;;;;;;;5.87;1.77;;;;;;;17.67;74.68;100228.31;1756588;81;25585;-71
2022/07/12 07:09:29;;;;;;;3.75;2.33;;;;;;;17.71;74.34;100229.75;1756641;81;25385;-71
2022/07/12 07:11:55;;;;;;;2.70;2.10;;;;;;;17.80;74.46;100226.80;1759199;81;27559;-70
2022/07/12 07:14:23;;;;;;;4.00;2.22;;;;;;;17.87;74.33;100229.70;1759584;81;25606;-71
2022/07/12 07:16:49;;;;;;;5.00;2.40;;;;;;;17.92;74.13;100228.84;1755376;81;25714;-70
2022/07/12 07:19:15;;;;;;;2.90;2.27;;;;;;;18.01;73.70;100230.56;1755016;81;25901;-70
2022/07/12 07:21:41;;;;;;;5.42;2.00;;;;;;;18.04;73.38;100221.64;1762021;81;25682;-70
2022/07/12 07:24:09;;;;;;;2.90;1.40;;;;;;;18.06;73.36;100227.54;1752233;81;27458;-70
2022/07/12 07:26:35;;;;;;;4.97;1.80;;;;;;;18.17;73.35;100228.55;1751719;81;26358;-70
2022/07/12 07:31:46;;;;;;;4.00;2.10;;;;;;;18.40;72.45;100231.89;1751399;81;27315;-69
2022/07/12 07:34:12;;;;;;;2.70;1.75;;;;;;;18.52;72.41;100222.72;1751121;81;25584;-69
2022/07/12 07:36:38;;;;;;;4.45;1.55;;;;;;;18.71;72.89;100228.71;1762216;81;27454;-69
2022/07/12 07:39:04;;;;;;;4.08;1.50;;;;;;;18.90;72.46;100227.31;1762175;81;25811;-69
2022/07/12 07:41:30;;;;;;;4.58;2.00;;;;;;;19.08;71.97;100230.32;1709097;81;25645;-69
2022/07/12 07:43:56;;;;;;;5.65;3.35;;;;;;;19.32;70.65;100224.99;1731536;81;25401;-69
2022/07/12 07:46:23;;;;;;;1.30;1.20;;;;;;;19.47;70.82;100241.08;1742674;80;25398;-69
2022/07/12 07:48:49;;;;;;;3.17;1.40;;;;;;;19.57;69.79;100234.16;1717135;82;27566;-69
2022/07/12 07:51:15;;;;;;;2.72;1.55;;;;;;;19.61;68.79;100219.90;1750641;82;25403;-69
2022/07/12 07:53:42;;;;;;;3.08;2.77;;;;;;;19.67;68.53;100222.54;1750592;81;25689;-68
2022/07/12 07:56:08;;;;;;;4.05;1.30;;;;;;;19.74;68.58;100217.16;1750286;82;25752;-69
2022/07/12 07:58:34;;;;;;;2.55;1.45;;;;;;;19.88;68.29;100224.00;1750650;82;25705;-69
2022/07/12 08:01:00;;;;;;;3.65;1.50;;;;;;;19.98;67.77;100219.22;1750618;82;27549;-69
2022/07/12 08:03:28;;;;;;;1.55;1.00;;;;;;;20.10;67.52;100225.81;1775239;80;26068;-70
2022/07/12 08:05:57;;;;;;;1.52;1.27;;;;;;;20.29;68.00;100228.17;1731052;81;25699;-70
2022/07/12 08:08:23;;;;;;;2.58;1.10;;;;;;;20.43;67.28;100221.47;1731562;81;25694;-70
2022/07/12 08:10:53;;;;;;;2.50;1.10;;;;;;;20.51;66.61;100209.35;1731580;82;25589;-70
2022/07/12 08:13:19;;;;;;;4.40;1.15;;;;;;;20.57;66.23;100217.25;1752194;81;27467;-69
2022/07/12 08:15:46;;;;;;;2.67;1.15;;;;;;;20.59;65.53;100216.31;1793111;78;25528;-71
2022/07/12 08:18:12;;;;;;;2.15;1.20;;;;;;;20.58;65.35;100211.97;1761973;81;25435;-71
2022/07/12 08:20:39;;;;;;;4.53;2.35;;;;;;;20.58;65.05;100208.63;1793263;80;25397;-69
2022/07/12 08:23:07;;;;;;;1.52;1.40;;;;;;;20.65;65.40;100216.98;1761954;81;25412;-69
2022/07/12 08:25:34;;;;;;;2.35;1.70;;;;;;;20.69;64.52;100215.05;1747659;80;27581;-69
2022/07/12 08:28:00;;;;;;;2.08;1.20;;;;;;;20.56;63.49;100214.31;1761822;81;25618;-68
2022/07/12 08:30:27;;;;;;;6.33;1.60;;;;;;;20.41;63.25;100228.49;1748802;80;25608;-67
2022/07/12 08:32:55;;;;;;;5.00;1.60;;;;;;;20.34;63.67;100227.84;1750958;82;25555;-68
2022/07/12 08:35:21;;;;;;;3.33;1.12;;;;;;;20.35;63.42;100229.42;1764261;80;25447;-68
2022/07/12 08:37:47;;;;;;;2.30;1.37;;;;;;;20.33;62.94;100221.56;1777328;80;27535;-70
2022/07/12 08:40:13;;;;;;;4.17;1.45;;;;;;;20.33;62.91;100225.68;1781468;80;25439;-69
2022/07/12 08:42:45;;;;;;;4.17;1.30;;;;;;;20.36;62.89;100223.34;1781800;80;25471;-69
2022/07/12 08:45:13;;;;;;;4.10;1.35;;;;;;;20.40;62.80;100216.72;1781741;80;25606;-68
2022/07/12 08:47:39;;;;;;;2.12;1.20;;;;;;;20.46;62.95;100222.06;1781994;80;25407;-68
2022/07/12 08:50:18;;;;;;;2.58;1.17;;;;;;;20.55;62.64;100208.61;1781783;80;28284;-70
2022/07/12 08:52:47;;;;;;;5.05;1.40;;;;;;;20.56;62.12;100209.59;1781887;80;25460;-70
2022/07/12 08:55:34;;;;;;;2.35;1.27;;;;;;;20.52;61.94;100215.66;1781858;80;25445;-70
2022/07/12 08:58:06;;;;;;;2.17;1.45;;;;;;;20.51;61.57;100212.70;1781795;80;25394;-68
2022/07/12 09:00:33;;;;;;;3.83;1.60;;;;;;;20.41;61.33;100203.17;1781861;80;25545;-68
2022/07/12 09:03:03;;;;;;;1.60;1.47;;;;;;;20.39;61.50;100204.73;1781852;80;27462;-68
2022/07/12 09:05:33;;;;;;;3.08;1.55;;;;;;;20.35;61.45;100197.84;1781737;80;25874;-68
2022/07/12 09:08:08;;;;;;;3.10;1.32;;;;;;;20.32;61.41;100198.59;1781787;80;25599;-68
2022/07/12 09:10:51;;;;;;;2.80;1.25;;;;;;;20.38;61.86;100186.11;1780873;80;25831;-68
2022/07/12 09:13:18;;;;;;;4.28;1.40;;;;;;;20.47;61.46;100196.77;1781805;80;25533;-68
2022/07/12 09:15:46;;;;;;;6.08;1.30;;;;;;;20.61;61.54;100184.52;1761913;81;27566;-68
2022/07/12 09:18:15;;;;;;;2.75;1.30;;;;;;;20.74;61.61;100179.56;1793198;80;25452;-66
2022/07/12 09:20:45;;;;;;;2.20;1.25;;;;;;;20.92;61.31;100170.66;1762079;81;30577;-66
2022/07/12 09:23:12;;;;;;;3.30;1.65;;;;;;;21.04;60.85;100175.84;1764709;80;25674;-66
2022/07/12 09:25:44;;;;;;;2.70;1.47;;;;;;;21.11;60.49;100171.75;1761867;81;25694;-66
2022/07/12 09:28:11;;;;;;;3.10;1.60;;;;;;;21.17;59.96;100179.85;1755809;80;27483;-67
2022/07/12 09:30:50;;;;;;;3.55;1.25;;;;;;;21.22;60.43;100167.70;1740374;82;25441;-67
2022/07/12 09:36:06;;;;;;;2.75;1.05;;;;;;;21.21;58.74;100168.27;1773363;80;25408;-68
2022/07/12 09:38:39;;;;;;;1.90;1.30;;;;;;;21.23;58.87;100167.89;1749581;81;25611;-70
2022/07/12 09:41:07;;;;;;;5.08;1.47;;;;;;;21.28;58.80;100168.90;1742618;81;28235;-69
2022/07/12 09:43:34;;;;;;;4.93;1.77;;;;;;;;;;1755614;81;25710;-67
2022/07/12 09:46:00;;;;;;;3.58;1.60;;;;;;;21.21;58.31;100163.37;1739721;82;25569;-67
2022/07/12 09:48:29;;;;;;;1.70;1.60;;;;;;;21.24;58.10;100170.85;1756145;81;25395;-66
2022/07/12 09:50:57;;;;;;;5.47;1.57;;;;;;;21.25;58.03;100163.59;1745523;82;25621;-67
2022/07/12 09:53:35;;;;;;;8.18;2.00;;;;;;;21.30;58.27;100162.45;1745676;82;28398;-67
2022/07/12 09:56:12;;;;;;;2.22;1.10;;;;;;;21.36;57.58;100153.23;1744979;82;25828;-66
2022/07/12 09:58:54;;;;;;;1.35;1.25;;;;;;;21.35;58.04;100163.45;1755157;81;25403;-67
2022/07/12 10:01:23;;;;;;;4.08;1.35;;;;;;;21.44;58.62;100163.10;1738615;82;25429;-66
2022/07/12 10:03:52;;;;;;;3.58;1.37;;;;;;;21.54;57.38;100157.45;1751057;81;25662;-67
2022/07/12 10:06:28;;;;;;;2.12;1.40;;;;;;;21.60;57.52;100156.70;1751022;82;27479;-67
2022/07/12 10:08:56;;;;;;;2.33;1.67;;;;;;;21.64;57.76;100163.62;1756194;81;25521;-66
2022/07/12 10:11:26;;;;;;;6.62;1.82;;;;;;;21.68;57.35;100160.88;1745587;82;25549;-66
2022/07/12 10:13:54;;;;;;;4.45;1.80;;;;;;;21.63;56.18;100167.53;1756286;81;25548;-66
2022/07/12 10:16:27;;;;;;;4.53;1.60;;;;;;;21.50;56.43;100158.81;1739786;82;25595;-66
2022/07/12 10:19:31;;;;;;;2.65;1.32;;;;;;;21.43;56.47;100158.16;1756260;81;27456;-67
2022/07/12 10:22:00;;;;;;;1.65;1.22;;;;;;;21.41;56.83;100162.49;1745531;82;25821;-66
2022/07/12 10:24:45;;;;;;;;;;;;;;;21.39;57.10;100146.37;1748140;82;25615;-66
2022/07/12 10:27:20;;;;;;;5.00;2.05;;;;;;;21.44;57.10;100149.34;1745476;81;25464;-66
2022/07/12 10:29:55;;;;;;;3.70;1.60;;;;;;;21.45;57.61;100140.70;1748080;81;25608;-65
2022/07/12 10:32:36;;;;;;;2.45;1.62;;;;;;;21.54;56.96;100133.50;1761788;81;28190;-65
2022/07/12 10:35:06;;;;;;;5.95;1.62;;;;;;;21.50;56.25;100145.66;1733726;81;25731;-65
2022/07/12 10:37:35;;;;;;;2.37;1.15;;;;;;;21.41;56.32;100140.48;1761824;81;25627;-65
2022/07/12 10:40:19;;;;;;;5.72;1.70;;;;;;;21.38;56.54;100140.66;1761944;81;25530;-67
2022/07/12 10:43:07;;;;;;;5.12;1.37;;;;;;;21.42;56.38;100137.95;1742676;82;25549;-65
2022/07/12 10:45:41;;;;;;;5.42;1.72;;;;;;;21.32;56.13;100141.41;1761521;81;27646;-67
2022/07/12 10:48:09;;;;;;;4.50;1.62;;;;;;;21.17;56.05;100141.94;1740853;82;25391;-66
2022/07/12 10:50:57;;;;;;;3.15;1.75;;;;;;;21.03;56.19;100142.06;1732116;81;25612;-66
2022/07/12 10:53:33;;;;;;;5.72;1.52;;;;;;;20.88;56.36;100145.30;1742578;82;25652;-66
2022/07/12 10:56:21;;;;;;;4.35;1.50;;;;;;;20.80;56.78;100132.67;1761873;81;25545;-66
2022/07/12 10:58:54;;;;;;;3.35;1.42;;;;;;;20.78;56.72;100130.12;1761846;81;27405;-67
2022/07/12 11:01:30;;;;;;;1.77;1.20;;;;;;;20.83;56.90;100125.64;1761725;81;25580;-66
2022/07/12 11:04:12;;;;;;;2.60;1.27;;;;;;;20.84;56.79;100118.39;1761813;81;25619;-66
2022/07/12 11:06:41;;;;;;;7.35;1.60;;;;;;;20.85;56.51;100116.42;1761843;81;26122;-66
2022/07/12 11:09:12;;;;;;;;;;;;;;;20.79;56.65;100124.24;1764387;81;25445;-65
2022/07/12 11:11:48;;;;;;;1.62;1.10;;;;;;;20.78;56.84;100121.87;1761787;81;27265;-66
2022/07/12 11:14:30;;;;;;;5.58;1.02;;;;;;;20.77;56.78;100105.98;1761817;81;25623;-65
2022/07/12 11:16:59;;;;;;;2.50;1.25;;;;;;;20.83;56.28;100122.89;1735012;82;25398;-66
2022/07/12 11:19:29;;;;;;;3.33;1.10;;;;;;;20.85;56.27;100117.79;1761930;81;26101;-66
2022/07/12 11:21:58;;;;;;;3.62;1.50;;;;;;;20.92;56.27;100114.30;1761977;81;25411;-68
2022/07/12 11:24:28;;;;;;;4.85;1.12;;;;;;;21.00;56.04;100113.17;1762117;81;27449;-65
2022/07/12 11:26:55;;;;;;;2.45;1.32;;;;;;;21.04;55.89;100109.28;1759425;81;26374;-66
2022/07/12 11:29:23;;;;;;;3.02;0.90;;;;;;;21.13;55.89;100115.00;1761725;81;25641;-67
2022/07/12 11:31:49;;;;;;;4.20;1.22;;;;;;;21.11;55.19;100098.09;1761548;81;25622;-65
2022/07/12 11:34:27;;;;;;;6.92;1.17;;;;;;;21.08;54.86;100099.08;1761453;81;25737;-66
2022/07/12 11:36:59;;;;;;;4.90;1.00;;;;;;;21.07;55.21;100100.23;1742508;82;27636;-68
2022/07/12 11:39:38;;;;;;;3.90;1.02;;;;;;;21.10;54.84;100102.04;1761485;81;25651;-67
2022/07/12 11:42:08;;;;;;;4.25;1.00;;;;;;;21.12;55.41;100101.84;1761668;81;25620;-66
2022/07/12 11:44:49;;;;;;;2.08;0.98;;;;;;;21.22;55.41;100105.83;1761717;81;25700;-69
2022/07/12 11:47:19;;;;;;;2.60;1.00;;;;;;;21.29;54.70;100096.81;1761401;81;25674;-68
2022/07/12 11:49:52;;;;;;;2.42;1.10;;;;;;;21.32;54.87;100100.15;1761785;81;27453;-67
2022/07/12 11:52:23;;;;;;;1.87;1.05;;;;;;;21.38;54.24;100105.48;1742292;82;25558;-66
2022/07/12 11:54:53;;;;;;;5.37;1.10;;;;;;;21.26;53.81;100104.64;1761519;81;25533;-67
2022/07/12 11:57:25;;;;;;;2.95;1.00;;;;;;;21.15;53.72;100101.08;1761549;81;25638;-67
2022/07/12 11:59:52;;;;;;;1.52;0.95;;;;;;;21.08;54.00;100108.70;1761678;81;25591;-67
2022/07/12 12:02:19;;;;;;;2.55;1.50;;;;;;;21.06;54.02;100106.12;1761332;81;28549;-67
2022/07/12 12:04:52;;;;;;;1.30;1.20;;;;;;;21.07;53.50;100095.33;1761672;81;25953;-67
2022/07/12 12:07:21;;;;;;;2.52;1.30;;;;;;;21.07;53.82;100098.08;1761567;81;25622;-67
2022/07/12 12:10:13;;;;;;;1.75;1.02;;;;;;;21.11;54.05;100096.72;1761489;81;26194;-67
2022/07/12 12:12:46;;;;;;;5.45;1.50;;;;;;;21.18;54.14;100095.38;1742465;82;25635;-67
2022/07/12 12:15:27;;;;;;;4.75;1.30;;;;;;;21.26;53.97;100095.62;1761648;81;27470;-67
2022/07/12 12:18:00;;;;;;;5.28;1.25;;;;;;;21.28;53.79;100093.26;1740982;82;25702;-66
2022/07/12 12:20:34;;;;;;;2.17;1.15;;;;;;;21.33;53.30;100084.63;1761759;81;25677;-64
2022/07/12 12:23:03;;;;;;;1.12;0.80;;;;;;;21.35;53.10;100089.19;1761959;81;25544;-64
2022/07/12 12:25:31;;;;;;;1.10;1.00;;;;;;;21.38;53.05;100084.86;1762203;81;25456;-65
2022/07/12 12:30:55;;;;;;;3.15;0.88;;;;;;;21.41;52.05;100096.47;1672320;84;25890;-66
2022/07/12 12:33:40;;;;;;;4.30;2.15;;;;;;;21.36;52.45;100095.47;1673178;85;25665;-65
2022/07/12 12:36:21;;;;;;;2.47;1.00;;;;;;;21.36;52.71;100107.84;1673089;85;25539;-64
2022/07/12 12:38:50;;;;;;;2.58;0.80;;;;;;;21.37;52.42;100101.18;1673543;85;25560;-64
2022/07/12 12:41:17;;;;;;;4.60;1.00;;;;;;;21.32;52.27;100096.02;1673564;85;27541;-64
2022/07/12 12:43:44;;;;;;;1.00;0.65;;;;;;;21.27;52.46;100100.73;1673505;85;25667;-64
2022/07/12 12:46:10;;;;;;;2.47;0.85;;;;;;;21.28;52.55;100094.64;1673434;85;25523;-67
2022/07/12 12:48:36;;;;;;;1.77;1.30;;;;;;;21.25;52.11;100090.71;1673446;85;25460;-67
2022/07/12 12:51:09;;;;;;;1.82;1.00;;;;;;;21.19;52.65;100079.09;1673286;85;25542;-67
2022/07/12 12:53:38;;;;;;;1.10;0.80;;;;;;;21.17;52.52;100087.72;1673342;85;28281;-67
2022/07/12 12:56:13;;;;;;;1.55;1.07;;;;;;;21.13;52.39;100084.75;1705981;83;25740;-67
2022/07/12 12:58:40;;;;;;;3.87;1.22;;;;;;;21.07;52.23;100086.48;1742918;82;25524;-67
2022/07/12 13:01:08;;;;;;;2.25;1.27;;;;;;;21.02;52.51;100081.95;1763450;81;26070;-67
2022/07/12 13:03:36;;;;;;;4.72;1.12;;;;;;;21.04;52.41;100072.16;1763522;81;25546;-67
2022/07/12 13:06:04;;;;;;;1.30;1.20;;;;;;;21.02;52.43;100081.36;1763498;81;27507;-67
2022/07/12 13:08:32;;;;;;;4.67;0.97;;;;;;;21.01;52.62;100076.24;1763664;81;25627;-67
2022/07/12 13:13:44;;;;;;;2.90;0.90;;;;;;;20.97;52.44;100086.45;1763533;81;26089;-67
2022/07/12 13:16:10;;;;;;;0.80;0.80;;;;;;;20.92;51.96;100078.56;1763528;81;25468;-70
2022/07/12 13:18:36;;;;;;;1.35;1.02;;;;;;;20.87;52.20;100070.89;1763493;81;27760;-67
2022/07/12 13:21:02;;;;;;;4.85;1.20;;;;;;;20.86;52.00;100069.91;1763424;81;25800;-67
2022/07/12 13:23:29;;;;;;;2.35;0.90;;;;;;;20.85;52.13;100075.19;1763532;81;25553;-67
2022/07/12 13:25:55;;;;;;;1.85;0.82;;;;;;;20.85;52.31;100076.56;1763459;81;26245;-67
2022/07/12 13:28:22;;;;;;;1.55;0.98;;;;;;;20.84;52.42;100057.11;1763559;81;25626;-67
2022/07/12 13:30:48;;;;;;;3.60;0.90;;;;;;;20.85;52.28;100064.19;1760629;81;27465;-67
2022/07/12 13:33:14;;;;;;;1.00;0.90;;;;;;;20.83;52.03;100065.95;1760431;81;25560;-67
2022/07/12 13:35:42;;;;;;;1.87;0.75;;;;;;;20.80;52.19;100063.96;1760476;81;25423;-67
2022/07/12 13:38:09;;;;;;;1.40;0.85;;;;;;;20.81;52.38;100064.77;1755674;81;25728;-68
2022/07/12 13:40:35;;;;;;;0.98;0.78;;;;;;;20.81;52.39;100059.27;1760483;81;25419;-67
2022/07/12 13:43:03;;;;;;;3.80;1.20;;;;;;;20.77;52.03;100060.63;1760534;81;27545;-67
2022/07/12 13:45:30;;;;;;;3.83;1.12;;;;;;;20.71;51.97;100064.30;1760415;81;25602;-67
2022/07/12 13:47:58;;;;;;;3.70;0.90;;;;;;;20.65;52.12;100050.75;1760529;81;25576;-67